Time;durP1;ratioP1;P1;durP2;ratioP2;P2;SDS_P1;SDS_P2;PMS_P1;PMS_P2;Temp;Humidity;BMP_temperature;BMP_pressure;BME280_temperature;BME280_humidity;BME280_pressure;Samples;Min_cycle;Max_cycle;Signal;HPM_P1;HPM_P2
2021/05/30 00:00:47;;;;;;;;;;;;;;;7.95;79.42;96373.69;3602014;39;19942;-54
2021/05/30 00:03:14;;;;;;;;;;;;;;;7.92;79.16;96377.56;3610627;39;20623;-53
2021/05/30 00:05:42;;;;;;;;;;;;;;;7.92;79.21;96377.56;3598197;39;19943;-53
2021/05/30 00:08:11;;;;;;;;;;;;;;;7.93;78.78;96373.91;3610005;39;19942;-53
2021/05/30 00:10:39;;;;;;;;;;;;;;;7.94;79.35;96369.44;3595044;39;19943;-54
2021/05/30 00:13:07;;;;;;;;;;;;;;;7.95;78.98;96363.97;3609452;39;19936;-54
2021/05/30 00:15:35;;;;;;;;;;;;;;;7.95;79.48;96369.22;3600422;39;19947;-54
2021/05/30 00:18:02;;;;;;;;;;;;;;;7.95;79.21;96363.97;3595797;39;20005;-54
2021/05/30 00:20:30;;;;;;;;;;;;;;;7.95;79.58;96366.59;3603856;39;20671;-54
2021/05/30 00:22:57;;;;;;;;;;;;;;;7.99;79.31;96365.13;3593976;39;19947;-53
2021/05/30 00:25:25;;;;;;;;;;;;;;;7.99;78.66;96359.06;3589032;39;19966;-54
2021/05/30 00:27:52;;;;;;;;;;;;;;;7.88;79.44;96344.88;3612888;39;19949;-53
2021/05/30 00:30:20;;;;;;;;;;;;;;;7.95;78.67;96357.91;3609653;39;19950;-53
2021/05/30 00:32:48;;;;;;;;;;;;;;;7.94;79.11;96356.31;3588071;39;19940;-53
2021/05/30 00:35:15;;;;;;;;;;;;;;;7.94;79.23;96356.31;3585213;39;19942;-54
2021/05/30 00:37:42;;;;;;;;;;;;;;;7.93;79.63;96362.59;3609624;39;19944;-53
2021/05/30 00:40:11;;;;;;;;;;;;;;;7.91;78.94;96357.56;3607670;39;19947;-53
2021/05/30 00:42:39;;;;;;;;;;;;;;;7.93;79.57;96355.53;3606183;39;19969;-53
2021/05/30 00:45:06;;;;;;;;;;;;;;;7.93;78.48;96358.16;3611593;39;19935;-54
2021/05/30 00:47:34;;;;;;;;;;;;;;;7.93;78.79;96355.53;3608655;39;19999;-56
2021/05/30 00:50:02;;;;;;;;;;;;;;;7.92;78.95;96353.13;3595990;39;19949;-54
2021/05/30 00:52:29;;;;;;;;;;;;;;;7.92;79.82;96350.47;3609190;39;19950;-53
2021/05/30 00:54:56;;;;;;;;;;;;;;;7.92;79.89;96353.13;3608156;39;19947;-54
2021/05/30 00:57:24;;;;;;;;;;;;;;;7.90;79.88;96347.28;3608783;39;19936;-54
2021/05/30 00:59:51;;;;;;;;;;;;;;;7.88;79.75;96342.25;3596681;39;19981;-53
2021/05/30 01:02:19;;;;;;;;;;;;;;;7.88;79.80;96346.72;3608220;39;19936;-53
2021/05/30 01:04:47;;;;;;;;;;;;;;;7.87;80.74;96339.88;3594497;39;19932;-54
2021/05/30 01:07:16;;;;;;;;;;;;;;;7.85;81.20;96335.66;3602361;39;19955;-54
2021/05/30 01:09:46;;;;;;;;;;;;;;;7.85;80.34;96337.47;3601810;39;19936;-53
2021/05/30 01:12:15;;;;;;;;;;;;;;;7.85;80.42;96347.97;3584792;39;19936;-53
2021/05/30 01:14:43;;;;;;;;;;;;;;;7.83;81.51;96344.75;3596491;39;19936;-54
2021/05/30 01:17:11;;;;;;;;;;;;;;;7.82;81.83;96343.16;3598240;39;19942;-52
2021/05/30 01:19:42;;;;;;;;;;;;;;;7.82;82.06;96345.78;3597207;39;20412;-53
2021/05/30 01:22:11;;;;;;;;;;;;;;;7.80;81.64;96346.03;3587109;39;20183;-53
2021/05/30 01:24:39;;;;;;;;;;;;;;;7.75;81.28;96338.03;3597616;39;19966;-54
2021/05/30 01:27:06;;;;;;;;;;;;;;;7.73;81.61;96342.72;3599804;39;19950;-54
2021/05/30 01:29:34;;;;;;;;;;;;;;;7.74;81.74;96339.06;3595459;39;19940;-53
2021/05/30 01:32:02;;;;;;;;;;;;;;;7.73;82.54;96339.28;3599647;39;19936;-53
2021/05/30 01:34:29;;;;;;;;;;;;;;;7.72;81.71;96337.66;3596132;39;19944;-53
2021/05/30 01:36:56;;;;;;;;;;;;;;;7.69;81.90;96344.97;3600277;39;19942;-52
2021/05/30 01:39:26;;;;;;;;;;;;;;;7.66;81.91;96337.56;3599671;39;19936;-53
2021/05/30 01:41:54;;;;;;;;;;;;;;;7.67;82.00;96336.53;3598139;39;19966;-54
2021/05/30 01:44:22;;;;;;;;;;;;;;;7.69;82.33;96338.94;3593908;39;19942;-54
2021/05/30 01:46:49;;;;;;;;;;;;;;;7.70;82.44;96336.06;3584932;39;19940;-55
2021/05/30 01:49:17;;;;;;;;;;;;;;;7.73;82.37;96334.03;3593176;39;19951;-54
2021/05/30 01:51:44;;;;;;;;;;;;;;;7.72;82.53;96335.03;3595156;39;19940;-54
2021/05/30 01:54:15;;;;;;;;;;;;;;;7.73;81.82;96334.03;3596712;39;19935;-54
2021/05/30 01:56:57;;;;;;;;;;;;;;;7.71;82.37;96331.63;3599108;39;19940;-54
2021/05/30 01:59:26;;;;;;;;;;;;;;;7.69;82.33;96334.47;3594992;39;19948;-53
2021/05/30 02:01:54;;;;;;;;;;;;;;;7.67;82.59;96328.66;3579181;39;19942;-53
2021/05/30 02:04:28;;;;;;;;;;;;;;;7.67;82.36;96320.78;3606954;39;20460;-54
2021/05/30 02:06:57;;;;;;;;;;;;;;;7.69;83.09;96323.97;3599763;39;19944;-53
2021/05/30 02:09:25;;;;;;;;;;;;;;;7.69;82.32;96334.47;3609496;39;19939;-53
2021/05/30 02:11:53;;;;;;;;;;;;;;;7.67;83.15;96328.66;3594950;39;19954;-52
2021/05/30 02:14:21;;;;;;;;;;;;;;;7.67;82.42;96325.22;3597971;39;19944;-53
2021/05/30 02:16:48;;;;;;;;;;;;;;;7.68;81.45;96327.66;3585771;39;19950;-54
2021/05/30 02:19:16;;;;;;;;;;;;;;;7.65;82.06;96328.09;3601666;39;19961;-53
2021/05/30 02:21:45;;;;;;;;;;;;;;;7.64;82.17;96331.75;3586375;39;19944;-53
2021/05/30 02:24:13;;;;;;;;;;;;;;;7.55;82.67;96322.59;3611945;39;19939;-53
2021/05/30 02:26:41;;;;;;;;;;;;;;;7.61;82.33;96336.66;3597113;39;19940;-53
2021/05/30 02:29:09;;;;;;;;;;;;;;;7.59;82.46;96339.47;3598076;39;19951;-53
2021/05/30 02:31:36;;;;;;;;;;;;;;;7.57;83.13;96335.50;3602474;39;19939;-54
2021/05/30 02:34:03;;;;;;;;;;;;;;;7.55;82.61;96333.09;3605731;39;20178;-53
2021/05/30 02:36:31;;;;;;;;;;;;;;;7.54;82.72;96337.53;3586170;39;21121;-53
2021/05/30 02:38:59;;;;;;;;;;;;;;;7.59;82.21;96338.69;3599405;39;19941;-54
2021/05/30 02:41:26;;;;;;;;;;;;;;;7.59;82.32;96338.69;3599553;39;19947;-54
2021/05/30 02:43:53;;;;;;;;;;;;;;;7.63;81.79;96345.88;3607008;39;20141;-53
2021/05/30 02:46:21;;;;;;;;;;;;;;;7.68;82.10;96338.16;3609480;39;19974;-54
2021/05/30 02:48:48;;;;;;;;;;;;;;;7.70;82.01;96343.16;3597637;39;19947;-53
2021/05/30 02:51:16;;;;;;;;;;;;;;;7.70;81.79;96341.31;3601715;39;19939;-54
2021/05/30 02:53:44;;;;;;;;;;;;;;;7.73;81.86;96336.66;3611322;39;19942;-55
2021/05/30 02:56:11;;;;;;;;;;;;;;;7.75;81.92;96340.66;3608581;39;19935;-53
2021/05/30 02:58:38;;;;;;;;;;;;;;;7.76;82.59;96344.09;3590412;39;19936;-54
2021/05/30 03:01:06;;;;;;;;;;;;;;;7.83;80.62;96344.75;3609082;39;19942;-53
2021/05/30 03:03:33;;;;;;;;;;;;;;;7.87;81.01;96339.88;3586511;39;19950;-54
2021/05/30 03:06:01;;;;;;;;;;;;;;;7.87;80.19;96339.88;3594771;39;19949;-53
2021/05/30 03:08:28;;;;;;;;;;;;;;;7.88;80.84;96339.63;3600603;39;19970;-53
2021/05/30 03:10:56;;;;;;;;;;;;;;;7.90;80.88;96339.41;3600592;39;19942;-53
2021/05/30 03:13:24;;;;;;;;;;;;;;;7.96;80.57;96339.28;3593958;39;19942;-54
2021/05/30 03:15:51;;;;;;;;;;;;;;;8.06;80.97;96337.94;3600355;39;19936;-54
2021/05/30 03:18:19;;;;;;;;;;;;;;;8.10;81.28;96333.81;3593950;39;19954;-55
2021/05/30 03:20:46;;;;;;;;;;;;;;;8.18;80.50;96336.09;3601618;39;19943;-54
2021/05/30 03:23:14;;;;;;;;;;;;;;;8.27;79.97;96337.34;3597488;39;19950;-54
2021/05/30 03:25:41;;;;;;;;;;;;;;;8.38;80.21;96343.59;3598662;39;20295;-54
2021/05/30 03:28:09;;;;;;;;;;;;;;;8.44;79.81;96347.13;3602470;39;19942;-54
2021/05/30 03:30:36;;;;;;;;;;;;;;;8.46;80.11;96347.72;3597953;39;19944;-54
2021/05/30 03:33:04;;;;;;;;;;;;;;;8.49;79.13;96342.03;3601876;39;19951;-53
2021/05/30 03:35:32;;;;;;;;;;;;;;;8.51;78.79;96350.50;3601189;39;19948;-54
2021/05/30 03:38:01;;;;;;;;;;;;;;;8.55;78.59;96348.19;3601273;39;20218;-53
2021/05/30 03:40:34;;;;;;;;;;;;;;;8.58;79.37;96347.75;3599769;39;19942;-53
2021/05/30 03:43:01;;;;;;;;;;;;;;;8.61;79.21;96355.16;3595121;39;19942;-53
2021/05/30 03:45:29;;;;;;;;;;;;;;;8.63;79.40;96347.81;3604564;39;20282;-54
2021/05/30 03:47:57;;;;;;;;;;;;;;;8.63;78.75;96354.94;3601049;39;20320;-54
2021/05/30 03:50:25;;;;;;;;;;;;;;;8.64;78.86;96352.06;3601221;39;19936;-54
2021/05/30 03:52:52;;;;;;;;;;;;;;;8.66;78.34;96351.84;3604523;39;19936;-54
2021/05/30 03:55:20;;;;;;;;;;;;;;;8.70;78.05;96358.22;3586848;39;19936;-54
2021/05/30 03:57:47;;;;;;;;;;;;;;;8.72;78.06;96356.16;3593309;39;19950;-53
2021/05/30 04:00:16;;;;;;;;;;;;;;;8.77;78.20;96356.28;3600443;39;19948;-53
2021/05/30 04:02:44;;;;;;;;;;;;;;;8.84;77.54;96364.81;3598538;39;19946;-53
2021/05/30 04:05:12;;;;;;;;;;;;;;;8.88;77.03;96349.38;3599071;39;19943;-53
2021/05/30 04:07:40;;;;;;;;;;;;;;;8.91;77.22;96359.44;3610574;39;20280;-53
2021/05/30 04:10:12;;;;;;;;;;;;;;;8.95;75.90;96357.13;3614044;39;19965;-53
2021/05/30 04:12:40;;;;;;;;;;;;;;;8.96;75.42;96358.72;3608853;39;19944;-53
2021/05/30 04:15:09;;;;;;;;;;;;;;;8.95;75.95;96360.56;3612215;39;20205;-54
2021/05/30 04:17:37;;;;;;;;;;;;;;;8.98;76.91;96351.41;3589987;39;19943;-54
2021/05/30 04:20:07;;;;;;;;;;;;;;;9.02;77.00;96361.22;3598436;39;19936;-54
2021/05/30 04:22:35;;;;;;;;;;;;;;;9.12;76.46;96360.63;3602325;39;20353;-53
2021/05/30 04:25:04;;;;;;;;;;;;;;;9.13;76.35;96351.69;3598684;39;21591;-54
2021/05/30 04:27:32;;;;;;;;;;;;;;;9.18;76.32;96359.66;3610191;39;19939;-54
2021/05/30 04:29:59;;;;;;;;;;;;;;;9.21;75.34;96366.31;3605705;39;19940;-53
2021/05/30 04:32:27;;;;;;;;;;;;;;;9.22;75.80;96360.00;3610770;39;20600;-53
2021/05/30 04:34:55;;;;;;;;;;;;;;;9.28;75.60;96364.31;3611613;39;20087;-53
2021/05/30 04:37:22;;;;;;;;;;;;;;;9.34;73.04;96365.22;3606986;39;19967;-53
2021/05/30 04:39:49;;;;;;;;;;;;;;;9.43;72.87;96363.78;3598643;39;19943;-54
2021/05/30 04:42:17;;;;;;;;;;;;;;;9.52;72.98;96369.47;3605884;39;19940;-53
2021/05/30 04:44:45;;;;;;;;;;;;;;;9.59;72.47;96366.69;3612723;39;19935;-54
2021/05/30 04:47:12;;;;;;;;;;;;;;;9.62;72.89;96369.63;3610611;39;19941;-54
2021/05/30 04:49:40;;;;;;;;;;;;;;;9.71;72.05;96366.63;3589786;39;20204;-53
2021/05/30 04:52:09;;;;;;;;;;;;;;;9.76;71.98;96370.16;3610066;39;19943;-57
2021/05/30 04:54:36;;;;;;;;;;;;;;;9.79;72.12;96374.91;3606827;39;19942;-54
2021/05/30 04:57:04;;;;;;;;;;;;;;;9.82;71.71;96374.44;3599378;39;19944;-54
2021/05/30 04:59:31;;;;;;;;;;;;;;;9.79;72.51;96369.66;3600756;39;19949;-54
2021/05/30 05:01:59;;;;;;;;;;;;;;;9.77;72.61;96378.84;3606116;39;20020;-53
2021/05/30 05:04:27;;;;;;;;;;;;;;;9.82;71.21;96381.56;3612180;39;19943;-54
2021/05/30 05:06:54;;;;;;;;;;;;;;;9.82;70.67;96382.34;3600034;39;20231;-53
2021/05/30 05:09:21;;;;;;;;;;;;;;;9.83;71.10;96370.78;3598371;39;19936;-53
2021/05/30 05:11:49;;;;;;;;;;;;;;;9.87;71.12;96370.31;3598248;39;19955;-53
2021/05/30 05:14:17;;;;;;;;;;;;;;;10.01;70.30;96374.22;3598343;39;19932;-53
2021/05/30 05:16:44;;;;;;;;;;;;;;;10.26;70.17;96373.78;3587121;39;19943;-53
2021/05/30 05:19:12;;;;;;;;;;;;;;;10.52;68.64;96381.31;3607758;39;19953;-53
2021/05/30 05:21:39;;;;;;;;;;;;;;;10.80;67.35;96382.16;3610703;39;19945;-56
2021/05/30 05:24:07;;;;;;;;;;;;;;;10.99;66.86;96372.09;3609970;39;19941;-54
2021/05/30 05:26:35;;;;;;;;;;;;;;;11.19;66.51;96384.72;3605944;39;19942;-53
2021/05/30 05:29:02;;;;;;;;;;;;;;;11.41;64.95;96378.59;3590393;39;19935;-53
2021/05/30 05:31:29;;;;;;;;;;;;;;;11.56;64.35;96378.75;3599821;39;19961;-53
2021/05/30 05:33:57;;;;;;;;;;;;;;;11.61;64.69;96391.22;3612367;39;19940;-54
2021/05/30 05:36:24;;;;;;;;;;;;;;;11.65;63.95;96376.47;3596941;39;19943;-54
2021/05/30 05:38:52;;;;;;;;;;;;;;;11.71;64.09;96379.94;3611762;39;19943;-54
2021/05/30 05:41:19;;;;;;;;;;;;;;;11.76;63.44;96379.97;3608921;39;19942;-53
2021/05/30 05:43:47;;;;;;;;;;;;;;;11.90;61.53;96383.81;3608577;39;19940;-54
2021/05/30 05:46:14;;;;;;;;;;;;;;;11.79;61.25;96376.84;3597784;39;19935;-54
2021/05/30 05:48:42;;;;;;;;;;;;;;;11.63;62.22;96387.28;3609054;39;19940;-53
2021/05/30 05:51:10;;;;;;;;;;;;;;;11.71;62.01;96390.53;3609960;39;19953;-54
2021/05/30 05:53:37;;;;;;;;;;;;;;;11.67;61.87;96383.09;3596411;39;19943;-53
2021/05/30 05:56:05;;;;;;;;;;;;;;;11.73;61.30;96394.50;3612260;39;19967;-53
2021/05/30 05:58:32;;;;;;;;;;;;;;;11.83;59.06;96391.94;3595188;39;19948;-58
2021/05/30 06:01:09;;;;;;;;;;;;;;;11.84;60.21;96393.53;3597659;39;19950;-54
2021/05/30 06:03:37;;;;;;;;;;;;;;;11.83;59.83;96404.38;3610238;39;19939;-53
2021/05/30 06:06:04;;;;;;;;;;;;;;;11.98;59.79;96401.91;3598061;39;20371;-63
2021/05/30 06:08:32;;;;;;;;;;;;;;;11.99;58.62;96405.31;3611099;39;20295;-53
2021/05/30 06:11:00;;;;;;;;;;;;;;;11.83;59.86;96412.31;3610811;39;19945;-54
2021/05/30 06:13:27;;;;;;;;;;;;;;;11.81;60.10;96409.91;3606425;39;19935;-53
2021/05/30 06:15:55;;;;;;;;;;;;;;;11.79;59.49;96412.00;3611330;39;19954;-53
2021/05/30 06:18:23;;;;;;;;;;;;;;;11.74;59.65;96413.81;3606527;39;19940;-53
2021/05/30 06:20:50;;;;;;;;;;;;;;;11.90;59.54;96404.94;3582290;39;19954;-53
2021/05/30 06:23:18;;;;;;;;;;;;;;;12.03;58.95;96408.25;3608042;39;20316;-53
2021/05/30 06:25:45;;;;;;;;;;;;;;;12.19;58.09;96414.44;3611439;39;20299;-54
2021/05/30 06:28:16;;;;;;;;;;;;;;;12.27;58.27;96409.50;3613443;39;19942;-53
2021/05/30 06:30:44;;;;;;;;;;;;;;;12.28;56.86;96410.31;3591858;39;19935;-53
2021/05/30 06:33:11;;;;;;;;;;;;;;;12.29;57.29;96412.69;3612278;39;20559;-53
2021/05/30 06:35:40;;;;;;;;;;;;;;;12.25;58.20;96421.38;3611309;39;19953;-53
2021/05/30 06:38:08;;;;;;;;;;;;;;;12.27;58.80;96412.13;3609642;39;19940;-53
2021/05/30 06:40:36;;;;;;;;;;;;;;;12.37;58.79;96413.28;3606050;39;19941;-55
2021/05/30 06:43:03;;;;;;;;;;;;;;;12.56;58.26;96421.56;3611646;39;19943;-53
2021/05/30 06:45:31;;;;;;;;;;;;;;;12.61;58.25;96419.75;3590524;39;19951;-53
2021/05/30 06:48:00;;;;;;;;;;;;;;;12.73;58.63;96427.50;3599586;39;20421;-53
2021/05/30 06:50:28;;;;;;;;;;;;;;;12.87;57.19;96419.91;3610036;39;20269;-55
2021/05/30 06:52:56;;;;;;;;;;;;;;;13.07;56.38;96421.06;3613326;39;20484;-53
2021/05/30 06:55:24;;;;;;;;;;;;;;;13.18;55.80;96422.69;3612545;39;19982;-53
2021/05/30 06:57:51;;;;;;;;;;;;;;;13.35;55.75;96421.69;3607062;39;19940;-54
2021/05/30 07:00:19;;;;;;;;;;;;;;;13.27;54.74;96422.19;3602029;39;19947;-53
2021/05/30 07:02:48;;;;;;;;;;;;;;;13.19;55.08;96420.81;3611347;39;20163;-53
2021/05/30 07:05:18;;;;;;;;;;;;;;;13.02;57.47;96419.19;3605542;39;19943;-54
2021/05/30 07:07:45;;;;;;;;;;;;;;;13.06;56.83;96420.25;3599643;39;19935;-54
2021/05/30 07:10:14;;;;;;;;;;;;;;;13.12;53.89;96417.63;3608157;39;19944;-54
2021/05/30 07:12:41;;;;;;;;;;;;;;;13.29;54.94;96426.16;3587487;39;19935;-53
2021/05/30 07:15:09;;;;;;;;;;;;;;;13.58;54.66;96425.72;3597551;39;19936;-54
2021/05/30 07:17:37;;;;;;;;;;;;;;;13.76;52.71;96419.13;3606351;39;20251;-53
2021/05/30 07:20:07;;;;;;;;;;;;;;;13.75;54.04;96430.81;3609182;39;19944;-54
2021/05/30 07:22:34;;;;;;;;;;;;;;;13.82;54.36;96430.53;3610171;39;20208;-53
2021/05/30 07:25:03;;;;;;;;;;;;;;;13.84;52.45;96423.94;3600166;39;19944;-53
2021/05/30 07:27:35;;;;;;;;;;;;;;;13.84;51.90;96425.78;3602263;39;19935;-53
2021/05/30 07:30:04;;;;;;;;;;;;;;;13.78;52.04;96432.94;3591196;39;20236;-53
2021/05/30 07:32:31;;;;;;;;;;;;;;;13.88;52.53;96429.50;3609265;39;19936;-53
2021/05/30 07:34:59;;;;;;;;;;;;;;;14.02;52.22;96434.28;3598144;39;20932;-53
2021/05/30 07:37:26;;;;;;;;;;;;;;;13.96;51.94;96436.16;3600071;39;19943;-54
2021/05/30 07:39:54;;;;;;;;;;;;;;;13.93;51.53;96423.41;3611562;39;19952;-53
2021/05/30 07:42:21;;;;;;;;;;;;;;;13.86;50.87;96438.75;3604536;39;19935;-54
2021/05/30 07:44:49;;;;;;;;;;;;;;;13.67;50.21;96433.97;3608906;39;19950;-53
2021/05/30 07:47:16;;;;;;;;;;;;;;;13.92;51.12;96427.13;3612425;39;19935;-54
2021/05/30 07:49:44;;;;;;;;;;;;;;;14.23;50.52;96425.25;3595728;39;19936;-54
2021/05/30 07:52:11;;;;;;;;;;;;;;;14.43;49.00;96437.72;3606791;39;19935;-53
2021/05/30 07:54:39;;;;;;;;;;;;;;;14.53;49.57;96433.47;3584071;39;19946;-54
2021/05/30 07:57:07;;;;;;;;;;;;;;;14.84;48.25;96426.25;3600583;39;19949;-53
2021/05/30 07:59:38;;;;;;;;;;;;;;;15.06;48.12;96430.41;3600746;39;19935;-53
2021/05/30 08:02:06;;;;;;;;;;;;;;;15.06;47.49;96422.44;3611375;39;19947;-53
2021/05/30 08:04:34;;;;;;;;;;;;;;;14.76;47.86;96422.28;3606265;39;19948;-54
2021/05/30 08:07:02;;;;;;;;;;;;;;;14.55;48.88;96420.72;3603795;39;19935;-53
2021/05/30 08:09:29;;;;;;;;;;;;;;;14.58;49.83;96420.19;3596502;39;22070;-53
2021/05/30 08:11:58;;;;;;;;;;;;;;;14.69;48.90;96424.44;3606132;39;20654;-53
2021/05/30 08:14:26;;;;;;;;;;;;;;;14.79;47.93;96422.81;3598258;39;20349;-55
2021/05/30 08:16:53;;;;;;;;;;;;;;;14.69;46.71;96427.09;3600564;39;20365;-55
2021/05/30 08:19:21;;;;;;;;;;;;;;;14.87;47.52;96419.59;3603397;39;19936;-55
2021/05/30 08:21:48;;;;;;;;;;;;;;;15.16;47.47;96426.94;3612765;39;20144;-64
2021/05/30 08:24:16;;;;;;;;;;;;;;;15.06;46.84;96431.22;3611504;39;19944;-60
2021/05/30 08:26:52;;;;;;;;;;;;;;;14.94;45.88;96421.97;3610518;39;20224;-55
2021/05/30 08:29:24;;;;;;;;;;;;;;;15.05;46.83;96432.28;3596287;39;19980;-54
2021/05/30 08:31:52;;;;;;;;;;;;;;;15.22;45.42;96431.97;3610000;39;19936;-53
2021/05/30 08:34:19;;;;;;;;;;;;;;;15.14;45.88;96431.72;3609984;39;20403;-54
2021/05/30 08:36:47;;;;;;;;;;;;;;;15.00;48.02;96436.84;3605946;39;19943;-54
2021/05/30 08:39:15;;;;;;;;;;;;;;;14.82;49.08;96433.69;3589564;39;20024;-54
2021/05/30 08:41:43;;;;;;;;;;;;;;;14.68;50.92;96435.31;3586986;39;19944;-54
2021/05/30 08:44:11;;;;;;;;;;;;;;;14.62;49.46;96439.81;3585985;39;19944;-53
2021/05/30 08:46:39;;;;;;;;;;;;;;;14.58;50.39;96433.47;3608835;39;19947;-54
2021/05/30 08:49:07;;;;;;;;;;;;;;;14.54;49.63;96449.09;3613385;39;19955;-53
2021/05/30 08:51:38;;;;;;;;;;;;;;;14.64;50.01;96432.38;3613043;39;19943;-54
2021/05/30 08:54:13;;;;;;;;;;;;;;;14.84;47.34;96436.88;3599427;39;19949;-54
2021/05/30 08:56:42;;;;;;;;;;;;;;;15.01;48.24;96447.19;3606127;39;19954;-54
2021/05/30 08:59:33;;;;;;;;;;;;;;;15.47;47.01;96442.72;3613792;39;19942;-53
2021/05/30 09:02:10;;;;;;;;;;;;;;;15.86;46.93;96439.34;3605531;39;19944;-53
2021/05/30 09:04:44;;;;;;;;;;;;;;;16.10;44.59;96438.63;3602901;39;19943;-55
2021/05/30 09:07:11;;;;;;;;;;;;;;;16.14;43.54;96434.34;3613553;39;19944;-55
2021/05/30 09:09:40;;;;;;;;;;;;;;;16.37;43.55;96432.81;3589869;39;19943;-53
2021/05/30 09:12:18;;;;;;;;;;;;;;;16.51;41.70;96424.97;3605913;39;20357;-55
2021/05/30 09:14:49;;;;;;;;;;;;;;;16.58;42.00;96425.44;3612356;39;19969;-54
2021/05/30 09:17:16;;;;;;;;;;;;;;;16.66;42.90;96423.25;3613221;39;19940;-53
2021/05/30 09:19:44;;;;;;;;;;;;;;;16.81;41.49;96417.75;3608603;39;19936;-54
2021/05/30 09:22:15;;;;;;;;;;;;;;;17.06;42.04;96415.91;3611138;39;20007;-53
2021/05/30 09:25:02;;;;;;;;;;;;;;;17.18;40.73;96410.94;3593401;39;19948;-53
2021/05/30 09:27:33;;;;;;;;;;;;;;;17.17;40.04;96413.91;3589666;39;19936;-54
2021/05/30 09:30:07;;;;;;;;;;;;;;;17.40;40.46;96420.28;3589373;39;19951;-54
2021/05/30 09:32:53;;;;;;;;;;;;;;;17.15;39.24;96424.06;3587587;39;19943;-53
2021/05/30 09:35:27;;;;;;;;;;;;;;;17.02;39.93;96422.88;3607969;39;19958;-55
2021/05/30 09:38:04;;;;;;;;;;;;;;;16.90;40.50;96421.41;3604319;39;19936;-54
2021/05/30 09:40:45;;;;;;;;;;;;;;;16.88;41.07;96418.22;3588684;39;19948;-54
2021/05/30 09:43:23;;;;;;;;;;;;;;;16.50;41.02;96418.06;3606732;39;20219;-54
2021/05/30 09:46:11;;;;;;;;;;;;;;;16.59;40.53;96429.69;3601845;39;19947;-54
2021/05/30 09:48:42;;;;;;;;;;;;;;;16.31;40.83;96419.84;3597369;39;20208;-53
2021/05/30 09:51:25;;;;;;;;;;;;;;;16.14;41.85;96421.06;3604975;39;20308;-54
2021/05/30 09:53:53;;;;;;;;;;;;;;;15.46;42.85;96418.03;3595279;39;19942;-54
2021/05/30 09:56:31;;;;;;;;;;;;;;;15.20;41.98;96412.03;3614003;39;19935;-54
2021/05/30 09:58:59;;;;;;;;;;;;;;;15.59;42.44;96432.56;3586872;39;20220;-53
2021/05/30 10:01:27;;;;;;;;;;;;;;;15.68;40.96;96424.81;3609930;39;21389;-54
2021/05/30 10:03:56;;;;;;;;;;;;;;;16.19;41.67;96415.66;3596860;39;20274;-58
2021/05/30 10:06:23;;;;;;;;;;;;;;;16.57;41.25;96415.06;3609664;39;19951;-53
2021/05/30 10:08:51;;;;;;;;;;;;;;;16.83;39.67;96410.25;3604814;39;20530;-54
2021/05/30 10:11:18;;;;;;;;;;;;;;;16.94;40.39;96420.81;3607765;39;19992;-54
2021/05/30 10:13:46;;;;;;;;;;;;;;;16.51;40.27;96409.00;3599359;39;19944;-54
2021/05/30 10:16:14;;;;;;;;;;;;;;;16.52;42.07;96423.91;3611820;39;19940;-54
2021/05/30 10:18:50;;;;;;;;;;;;;;;16.62;41.47;96416.88;3608347;39;19952;-53
2021/05/30 10:21:19;;;;;;;;;;;;;;;16.47;42.62;96428.50;3596464;39;19943;-53
2021/05/30 10:23:50;;;;;;;;;;;;;;;16.43;41.42;96431.72;3613029;39;20213;-53
2021/05/30 10:26:20;;;;;;;;;;;;;;;16.31;41.64;96436.63;3598995;39;19944;-54
2021/05/30 10:28:56;;;;;;;;;;;;;;;16.19;42.45;96438.84;3613884;39;19941;-53
2021/05/30 10:31:27;;;;;;;;;;;;;;;16.25;41.52;96438.53;3608457;39;19939;-53
2021/05/30 10:34:10;;;;;;;;;;;;;;;16.21;41.53;96444.69;3607990;39;19950;-55
2021/05/30 10:36:40;;;;;;;;;;;;;;;15.62;43.97;96445.31;3597546;39;19940;-53
2021/05/30 10:39:26;;;;;;;;;;;;;;;15.33;44.89;96440.66;3608383;39;19944;-56
2021/05/30 10:42:10;;;;;;;;;;;;;;;14.94;46.12;96449.34;3606863;39;19935;-54
2021/05/30 10:44:57;;;;;;;;;;;;;;;14.56;47.15;96462.13;3604381;39;19942;-57
2021/05/30 10:47:57;;;;;;;;;;;;;;;14.28;48.08;96454.44;3600624;39;19957;-56
2021/05/30 10:50:32;;;;;;;;;;;;;;;14.22;47.26;96467.97;3580882;39;19944;-54
2021/05/30 10:52:59;;;;;;;;;;;;;;;14.27;47.37;96462.66;3589900;39;19949;-54
2021/05/30 10:55:28;;;;;;;;;;;;;;;14.37;46.57;96457.34;3603341;39;20103;-54
2021/05/30 10:57:56;;;;;;;;;;;;;;;14.49;47.45;96458.94;3601097;39;20251;-55
2021/05/30 11:00:26;;;;;;;;;;;;;;;14.79;47.89;96457.34;3614660;39;19944;-55
2021/05/30 11:05:50;;;;;;;;;;;;;;;15.40;45.28;96460.84;3614037;39;19936;-56
2021/05/30 11:08:30;;;;;;;;;;;;;;;15.61;45.61;96462.34;3601329;39;19949;-56
2021/05/30 11:11:09;;;;;;;;;;;;;;;15.87;45.54;96464.88;3592763;39;19942;-59
2021/05/30 11:13:57;;;;;;;;;;;;;;;16.16;45.11;96477.47;3601325;39;19962;-56
2021/05/30 11:16:27;;;;;;;;;;;;;;;16.34;44.28;96467.19;3616960;39;19969;-56
2021/05/30 11:18:56;;;;;;;;;;;;;;;16.38;44.42;96468.25;3586209;39;20264;-56
2021/05/30 11:21:27;;;;;;;;;;;;;;;16.60;42.96;96481.88;3616338;39;20016;-54
2021/05/30 11:23:57;;;;;;;;;;;;;;;16.69;43.13;96478.59;3603193;39;19953;-56
2021/05/30 11:26:24;;;;;;;;;;;;;;;16.51;43.81;96483.56;3614554;39;19947;-55
2021/05/30 11:28:52;;;;;;;;;;;;;;;16.38;44.87;96476.22;3606987;39;19939;-55
2021/05/30 11:31:20;;;;;;;;;;;;;;;16.33;43.65;96482.38;3613157;39;19939;-55
2021/05/30 11:33:57;;;;;;;;;;;;;;;16.11;45.19;96485.47;3613955;39;19935;-55
2021/05/30 11:36:32;;;;;;;;;;;;;;;15.72;45.85;96489.69;3600012;39;20331;-54
2021/05/30 11:39:13;;;;;;;;;;;;;;;15.36;48.41;96509.25;3612729;39;19940;-54
2021/05/30 11:41:49;;;;;;;;;;;;;;;15.06;45.63;96508.28;3588261;39;20789;-54
2021/05/30 11:44:25;;;;;;;;;;;;;;;14.42;46.98;96514.94;3604038;39;20339;-54
2021/05/30 11:46:57;;;;;;;;;;;;;;;13.94;47.62;96513.31;3592172;39;20499;-54
2021/05/30 11:49:26;;;;;;;;;;;;;;;13.57;49.29;96513.47;3601056;39;19935;-54
2021/05/30 11:51:55;;;;;;;;;;;;;;;13.55;49.95;96531.50;3609995;39;19935;-55
2021/05/30 11:54:23;;;;;;;;;;;;;;;13.49;53.20;96530.66;3601386;39;19947;-55
2021/05/30 11:56:52;;;;;;;;;;;;;;;13.37;55.39;96533.50;3598812;39;19961;-55
2021/05/30 11:59:29;;;;;;;;;;;;;;;13.08;55.84;96531.25;3614349;39;19943;-56
2021/05/30 12:01:57;;;;;;;;;;;;;;;12.83;55.60;96529.22;3592432;39;20322;-56
2021/05/30 12:04:26;;;;;;;;;;;;;;;12.79;57.81;96536.88;3591634;39;19932;-56
2021/05/30 12:06:54;;;;;;;;;;;;;;;12.70;57.51;96528.59;3603621;39;19932;-55
2021/05/30 12:09:22;;;;;;;;;;;;;;;12.70;58.63;96512.72;3604065;39;19966;-55
2021/05/30 12:11:49;;;;;;;;;;;;;;;12.72;60.02;96518.56;3597594;39;19965;-55
2021/05/30 12:14:17;;;;;;;;;;;;;;;12.82;62.87;96509.91;3599792;39;20289;-55
2021/05/30 12:16:46;;;;;;;;;;;;;;;12.87;61.69;96522.38;3581385;39;19943;-55
2021/05/30 12:19:14;;;;;;;;;;;;;;;12.85;60.56;96511.22;3608785;39;20216;-55
2021/05/30 12:21:45;;;;;;;;;;;;;;;12.92;59.05;96512.59;3587611;39;19944;-55
2021/05/30 12:24:14;;;;;;;;;;;;;;;12.89;59.99;96517.63;3591084;39;19936;-55
2021/05/30 12:26:42;;;;;;;;;;;;;;;12.96;61.29;96520.03;3597955;39;19947;-55
2021/05/30 12:29:10;;;;;;;;;;;;;;;13.06;60.47;96520.09;3603557;39;19940;-55
2021/05/30 12:31:38;;;;;;;;;;;;;;;13.18;60.71;96525.19;3598169;39;19973;-58
2021/05/30 12:34:08;;;;;;;;;;;;;;;13.27;57.46;96522.84;3604859;39;19936;-54
2021/05/30 12:36:36;;;;;;;;;;;;;;;13.37;59.89;96525.53;3603232;39;19974;-55
2021/05/30 12:39:10;;;;;;;;;;;;;;;13.56;55.07;96528.56;3600523;39;19940;-55
2021/05/30 12:41:42;;;;;;;;;;;;;;;13.74;56.29;96529.94;3601887;39;20277;-57
2021/05/30 12:44:14;;;;;;;;;;;;;;;13.98;58.23;96522.34;3594669;39;20364;-55
2021/05/30 12:46:54;;;;;;;;;;;;;;;14.21;56.47;96532.72;3602240;39;20290;-55
2021/05/30 12:49:22;;;;;;;;;;;;;;;14.42;57.58;96538.84;3603359;39;20139;-55
2021/05/30 12:51:59;;;;;;;;;;;;;;;14.58;53.49;96526.38;3598081;39;19942;-55
2021/05/30 12:54:27;;;;;;;;;;;;;;;14.75;52.72;96529.56;3603684;39;20184;-56
2021/05/30 12:56:56;;;;;;;;;;;;;;;14.95;50.14;96513.88;3604495;39;19954;-55
2021/05/30 12:59:24;;;;;;;;;;;;;;;15.02;50.82;96501.09;3603286;39;19954;-55
2021/05/30 13:01:53;;;;;;;;;;;;;;;15.01;51.04;96505.63;3599127;39;19948;-55
2021/05/30 13:04:21;;;;;;;;;;;;;;;15.17;50.82;96500.28;3597888;39;19945;-55